createdAt,value
2019-05-30T00:00:12.439Z,0.00
2019-05-30T00:00:59.977Z,0.00
2019-05-30T00:01:58.608Z,0.00
2019-05-30T00:02:58.701Z,0.00
2019-05-30T00:03:58.922Z,0.00
2019-05-30T00:05:00.200Z,0.00
2019-05-30T00:05:58.350Z,0.00
2019-05-30T00:06:58.679Z,0.00
2019-05-30T00:08:00.309Z,0.00
2019-05-30T00:09:00.432Z,0.00
2019-05-30T00:09:58.672Z,0.00
2019-05-30T00:10:58.847Z,0.00
2019-05-30T00:12:00.833Z,0.00
2019-05-30T00:13:00.630Z,0.00
2019-05-30T00:14:00.657Z,0.00
2019-05-30T00:15:00.685Z,0.00
2019-05-30T00:16:00.767Z,0.00
2019-05-30T00:17:00.941Z,0.00
2019-05-30T00:18:00.887Z,0.00
2019-05-30T00:19:00.893Z,0.00
2019-05-30T00:20:01.016Z,0.00
2019-05-30T00:21:00.873Z,0.00
2019-05-30T00:22:00.866Z,0.00
2019-05-30T00:23:01.065Z,0.00
2019-05-30T00:24:02.204Z,0.00
2019-05-30T00:25:02.455Z,0.00
2019-05-30T00:26:01.520Z,0.00
2019-05-30T00:27:02.460Z,0.00
2019-05-30T00:28:05.157Z,0.00
2019-05-30T00:29:02.586Z,0.00
2019-05-30T00:30:03.588Z,0.00
2019-05-30T00:31:04.685Z,0.00
2019-05-30T00:32:03.980Z,0.00
2019-05-30T00:33:03.521Z,0.00
2019-05-30T00:34:04.252Z,0.00
2019-05-30T00:35:03.831Z,0.00
2019-05-30T00:36:03.927Z,0.00
2019-05-30T00:37:04.111Z,0.00
2019-05-30T00:38:05.989Z,0.00
2019-05-30T00:39:06.432Z,0.00
2019-05-30T00:40:04.231Z,0.00
2019-05-30T00:41:06.188Z,0.00
2019-05-30T00:42:04.641Z,0.00
2019-05-30T00:43:04.843Z,0.00
2019-05-30T00:44:06.178Z,0.00
2019-05-30T00:45:17.962Z,0.00
2019-05-30T00:46:07.438Z,0.00
2019-05-30T00:47:06.444Z,0.00
2019-05-30T00:48:06.495Z,0.00
2019-05-30T00:49:06.645Z,0.00
2019-05-30T00:50:06.689Z,0.00
2019-05-30T00:51:06.731Z,0.00
2019-05-30T00:52:06.869Z,0.00
2019-05-30T00:53:08.411Z,0.00
2019-05-30T00:54:07.129Z,0.00
2019-05-30T00:55:07.228Z,0.00
2019-05-30T00:56:07.911Z,0.00
2019-05-30T00:57:07.564Z,0.00
2019-05-30T00:58:07.742Z,0.00
2019-05-30T00:59:07.952Z,0.00
2019-05-30T01:00:08.920Z,0.00
2019-05-30T01:01:08.314Z,0.00
2019-05-30T01:02:08.550Z,0.00
2019-05-30T01:03:09.193Z,0.00
2019-05-30T01:04:09.913Z,0.00
2019-05-30T01:05:09.069Z,0.00
2019-05-30T01:06:09.258Z,0.00
2019-05-30T01:07:09.923Z,0.00
2019-05-30T01:08:09.598Z,0.00
2019-05-30T01:09:09.813Z,0.00
2019-05-30T01:10:10.018Z,0.00
2019-05-30T01:11:10.214Z,0.00
2019-05-30T01:12:10.414Z,0.00
2019-05-30T01:13:10.617Z,0.00
2019-05-30T01:14:10.788Z,0.00
2019-05-30T01:15:10.978Z,0.00
2019-05-30T01:16:11.150Z,0.00
2019-05-30T01:17:11.319Z,0.00
2019-05-30T01:18:11.558Z,0.00
2019-05-30T01:19:11.739Z,0.00
2019-05-30T01:20:11.924Z,0.00
2019-05-30T01:21:12.110Z,0.00
2019-05-30T01:22:12.267Z,0.00
2019-05-30T01:23:12.922Z,0.00
2019-05-30T01:24:12.578Z,0.00
2019-05-30T01:25:12.745Z,0.00
2019-05-30T01:26:13.425Z,0.00
2019-05-30T01:27:13.066Z,0.00
2019-05-30T01:28:13.256Z,0.00
2019-05-30T01:29:13.430Z,0.00
2019-05-30T01:30:13.606Z,0.00
2019-05-30T01:31:13.745Z,0.00
2019-05-30T01:32:13.996Z,0.00
2019-05-30T01:33:14.172Z,0.00
2019-05-30T01:34:14.313Z,0.00
2019-05-30T01:35:14.500Z,0.00
2019-05-30T01:36:14.657Z,0.00
2019-05-30T01:37:14.807Z,0.00
2019-05-30T01:38:14.944Z,0.00
2019-05-30T01:39:15.106Z,0.00
2019-05-30T01:40:15.280Z,0.00
2019-05-30T01:41:17.564Z,0.00
2019-05-30T01:42:16.584Z,0.00
2019-05-30T01:43:15.728Z,0.00
2019-05-30T01:44:15.881Z,0.00
2019-05-30T01:45:16.023Z,0.00
2019-05-30T01:46:17.171Z,0.00
2019-05-30T01:47:16.295Z,0.00
2019-05-30T01:48:16.448Z,0.00
2019-05-30T01:49:16.578Z,0.00
2019-05-30T01:50:16.724Z,0.00
2019-05-30T01:51:16.894Z,0.00
2019-05-30T01:52:17.066Z,0.00
2019-05-30T01:53:17.236Z,0.00
2019-05-30T01:54:17.434Z,0.00
2019-05-30T01:55:17.602Z,0.00
2019-05-30T01:56:17.761Z,0.00
2019-05-30T01:57:17.968Z,0.00
2019-05-30T01:58:18.132Z,0.00
2019-05-30T01:59:18.281Z,0.00
2019-05-30T02:00:21.265Z,0.00
2019-05-30T02:01:24.992Z,0.00
2019-05-30T02:02:20.832Z,0.00
2019-05-30T02:03:19.450Z,0.00
2019-05-30T02:04:19.129Z,0.00
2019-05-30T02:05:19.296Z,0.00
2019-05-30T02:06:20.428Z,0.00
2019-05-30T02:07:19.670Z,0.00
2019-05-30T02:08:19.869Z,0.00
2019-05-30T02:09:20.926Z,0.00
2019-05-30T02:10:20.435Z,0.00
2019-05-30T02:11:20.345Z,0.00
2019-05-30T02:12:20.535Z,0.00
2019-05-30T02:13:20.686Z,0.00
2019-05-30T02:14:20.870Z,0.00
2019-05-30T02:15:21.933Z,0.00
2019-05-30T02:16:21.190Z,0.00
2019-05-30T02:17:21.333Z,0.00
2019-05-30T02:18:21.519Z,0.00
2019-05-30T02:19:21.693Z,0.00
2019-05-30T02:20:21.852Z,0.00
2019-05-30T02:21:22.030Z,0.00
2019-05-30T02:22:22.155Z,0.00
2019-05-30T02:23:22.926Z,0.00
2019-05-30T02:24:22.429Z,0.00
2019-05-30T02:25:22.569Z,0.00
2019-05-30T02:26:22.723Z,0.00
2019-05-30T02:27:22.907Z,0.00
2019-05-30T02:28:23.057Z,0.00
2019-05-30T02:29:23.228Z,0.00
2019-05-30T02:30:23.922Z,0.00
2019-05-30T02:31:38.298Z,0.00
2019-05-30T02:32:25.781Z,0.00
2019-05-30T02:33:24.918Z,0.00
2019-05-30T02:34:24.942Z,4.00
2019-05-30T02:35:24.976Z,4.00
2019-05-30T02:36:24.410Z,4.00
2019-05-30T02:37:25.422Z,4.00
2019-05-30T02:38:24.791Z,0.00
2019-05-30T02:39:24.968Z,0.00
2019-05-30T02:40:25.136Z,4.00
2019-05-30T02:41:25.351Z,4.00
2019-05-30T02:42:25.520Z,4.00
2019-05-30T02:43:26.423Z,4.00
2019-05-30T02:44:25.922Z,4.00
2019-05-30T02:45:26.081Z,8.00
2019-05-30T02:46:26.218Z,4.00
2019-05-30T02:47:26.340Z,8.00
2019-05-30T02:48:26.458Z,8.00
2019-05-30T02:49:27.580Z,8.00
2019-05-30T02:50:26.835Z,8.00
2019-05-30T02:51:26.954Z,12.00
2019-05-30T02:52:27.930Z,12.00
2019-05-30T02:53:27.413Z,12.00
2019-05-30T02:54:27.576Z,16.00
2019-05-30T02:55:27.744Z,16.00
2019-05-30T02:56:27.864Z,16.00
2019-05-30T02:57:28.023Z,20.00
2019-05-30T02:58:28.153Z,24.00
2019-05-30T02:59:28.333Z,28.00
2019-05-30T03:00:28.498Z,28.00
2019-05-30T03:01:29.432Z,36.00
2019-05-30T03:02:28.822Z,40.00
2019-05-30T03:03:28.972Z,44.00
2019-05-30T03:04:29.137Z,52.00
2019-05-30T03:05:29.280Z,56.00
2019-05-30T03:06:29.437Z,60.00
2019-05-30T03:07:29.569Z,68.00
2019-05-30T03:08:30.696Z,76.00
2019-05-30T03:09:29.933Z,80.00
2019-05-30T03:10:30.080Z,88.00
2019-05-30T03:11:30.249Z,96.00
2019-05-30T03:12:30.382Z,100.00
2019-05-30T03:13:30.550Z,108.00
2019-05-30T03:14:31.659Z,112.00
2019-05-30T03:15:30.868Z,124.00
2019-05-30T03:16:31.128Z,136.00
2019-05-30T03:17:31.243Z,140.00
2019-05-30T03:18:31.466Z,148.00
2019-05-30T03:19:31.700Z,156.00
2019-05-30T03:20:31.932Z,164.00
2019-05-30T03:21:32.195Z,168.00
2019-05-30T03:22:32.335Z,180.00
2019-05-30T03:23:32.443Z,192.00
2019-05-30T03:24:33.559Z,208.00
2019-05-30T03:25:32.771Z,220.00
2019-05-30T03:26:34.018Z,236.00
2019-05-30T03:27:33.149Z,248.00
2019-05-30T03:28:33.303Z,264.00
2019-05-30T03:29:33.461Z,280.00
2019-05-30T03:30:33.604Z,292.00
2019-05-30T03:31:33.736Z,304.00
2019-05-30T03:33:05.375Z,320.00
2019-05-30T03:33:41.448Z,336.00
2019-05-30T03:34:36.198Z,348.00
2019-05-30T03:35:41.626Z,364.00
2019-05-30T03:36:36.558Z,376.00
2019-05-30T03:37:34.717Z,388.00
2019-05-30T03:38:34.869Z,408.00
2019-05-30T03:39:35.038Z,428.00
2019-05-30T03:40:36.246Z,444.00
2019-05-30T03:41:35.371Z,456.00
2019-05-30T03:42:35.501Z,468.00
2019-05-30T03:43:35.669Z,484.00
2019-05-30T03:44:35.866Z,496.00
2019-05-30T03:45:36.015Z,508.00
2019-05-30T03:46:36.171Z,520.00
2019-05-30T03:47:36.348Z,540.00
2019-05-30T03:48:36.517Z,556.00
2019-05-30T03:49:36.672Z,576.00
2019-05-30T03:50:36.819Z,588.00
2019-05-30T03:51:37.001Z,604.00
2019-05-30T03:52:37.146Z,608.00
2019-05-30T03:53:37.331Z,616.00
2019-05-30T03:54:38.440Z,624.00
2019-05-30T03:55:37.669Z,640.00
2019-05-30T03:56:38.830Z,668.00
2019-05-30T03:57:37.957Z,708.00
2019-05-30T03:58:38.138Z,748.00
2019-05-30T03:59:38.308Z,780.00
2019-05-30T04:00:38.478Z,812.00
2019-05-30T04:01:38.631Z,832.00
2019-05-30T04:02:55.172Z,852.00
2019-05-30T04:03:41.048Z,872.00
2019-05-30T04:04:39.159Z,892.00
2019-05-30T04:05:39.478Z,908.00
2019-05-30T04:06:40.467Z,928.00
2019-05-30T04:07:39.720Z,960.00
2019-05-30T04:08:39.894Z,1000.00
2019-05-30T04:09:40.070Z,1044.00
2019-05-30T04:10:40.251Z,1084.00
2019-05-30T04:11:40.420Z,1120.00
2019-05-30T04:12:40.599Z,1152.00
2019-05-30T04:13:40.810Z,1172.00
2019-05-30T04:14:40.968Z,1192.00
2019-05-30T04:15:41.128Z,1212.00
2019-05-30T04:16:41.287Z,1236.00
2019-05-30T04:17:41.429Z,1268.00
2019-05-30T04:18:41.609Z,1308.00
2019-05-30T04:19:41.958Z,1352.00
2019-05-30T04:20:41.993Z,1400.00
2019-05-30T04:21:42.155Z,1472.00
2019-05-30T04:22:42.299Z,1568.00
2019-05-30T04:23:42.434Z,1640.00
2019-05-30T04:24:42.606Z,1696.00
2019-05-30T04:25:42.815Z,1736.00
2019-05-30T04:26:42.995Z,1768.00
2019-05-30T04:27:43.150Z,1800.00
2019-05-30T04:28:43.299Z,1848.00
2019-05-30T04:29:43.420Z,1916.00
2019-05-30T04:30:43.959Z,1988.00
2019-05-30T04:31:43.731Z,2060.00
2019-05-30T04:32:43.896Z,2120.00
2019-05-30T04:33:44.049Z,2176.00
2019-05-30T04:34:44.220Z,2204.00
2019-05-30T04:35:44.350Z,2228.00
2019-05-30T04:36:44.538Z,2220.00
2019-05-30T04:37:44.716Z,2184.00
2019-05-30T04:38:44.860Z,2156.00
2019-05-30T04:39:45.011Z,2140.00
2019-05-30T04:40:45.183Z,2120.00
2019-05-30T04:41:45.449Z,2088.00
2019-05-30T04:42:45.488Z,2056.00
2019-05-30T04:43:45.648Z,2032.00
2019-05-30T04:44:46.817Z,2024.00
2019-05-30T04:45:45.948Z,2036.00
2019-05-30T04:46:46.112Z,2064.00
2019-05-30T04:47:46.261Z,2084.00
2019-05-30T04:48:46.423Z,2084.00
2019-05-30T04:49:46.587Z,2064.00
2019-05-30T04:50:46.747Z,2032.00
2019-05-30T04:51:46.959Z,2004.00
2019-05-30T04:52:47.126Z,1976.00
2019-05-30T04:53:47.298Z,1948.00
2019-05-30T04:54:47.465Z,1920.00
2019-05-30T04:55:47.688Z,1888.00
2019-05-30T04:56:47.892Z,1864.00
2019-05-30T04:57:48.066Z,1832.00
2019-05-30T04:58:48.225Z,1812.00
2019-05-30T04:59:48.384Z,1792.00
2019-05-30T05:00:48.525Z,1784.00
2019-05-30T05:01:48.701Z,1812.00
2019-05-30T05:02:48.848Z,1844.00
2019-05-30T05:03:49.020Z,1872.00
2019-05-30T05:04:49.218Z,1860.00
2019-05-30T05:05:49.384Z,1832.00
2019-05-30T05:06:49.574Z,1804.00
2019-05-30T05:07:49.764Z,1780.00
2019-05-30T05:08:49.984Z,1768.00
2019-05-30T05:09:50.160Z,1764.00
2019-05-30T05:10:50.299Z,1780.00
2019-05-30T05:11:51.453Z,1816.00
2019-05-30T05:12:50.613Z,1864.00
2019-05-30T05:13:50.768Z,1920.00
2019-05-30T05:14:50.944Z,1968.00
2019-05-30T05:15:51.136Z,2032.00
2019-05-30T05:16:51.295Z,2108.00
2019-05-30T05:17:51.495Z,2208.00
2019-05-30T05:18:51.684Z,2312.00
2019-05-30T05:19:51.859Z,2436.00
2019-05-30T05:20:52.007Z,2540.00
2019-05-30T05:21:52.184Z,2612.00
2019-05-30T05:22:52.364Z,2652.00
2019-05-30T05:23:52.528Z,2676.00
2019-05-30T05:24:52.725Z,2704.00
2019-05-30T05:26:00.950Z,2700.00
2019-05-30T05:26:55.142Z,2732.00
2019-05-30T05:27:53.405Z,2772.00
2019-05-30T05:28:53.563Z,2832.00
2019-05-30T05:29:53.738Z,2892.00
2019-05-30T05:30:53.915Z,2904.00
2019-05-30T05:31:54.085Z,2912.00
2019-05-30T05:32:54.263Z,2892.00
2019-05-30T05:33:56.963Z,2860.00
2019-05-30T05:34:55.549Z,2844.00
2019-05-30T05:35:54.672Z,2828.00
2019-05-30T05:36:54.827Z,2820.00
2019-05-30T05:37:54.992Z,2824.00
2019-05-30T05:38:55.190Z,2840.00
2019-05-30T05:39:55.352Z,2872.00
2019-05-30T05:40:55.560Z,2920.00
2019-05-30T05:41:55.729Z,2952.00
2019-05-30T05:42:55.920Z,3004.00
2019-05-30T05:43:56.132Z,3052.00
2019-05-30T05:44:56.261Z,3116.00
2019-05-30T05:45:56.438Z,3168.00
2019-05-30T05:46:56.629Z,3192.00
2019-05-30T05:47:57.456Z,3212.00
2019-05-30T05:48:57.067Z,3260.00
2019-05-30T05:49:57.156Z,3328.00
2019-05-30T05:50:57.348Z,3428.00
2019-05-30T05:51:57.555Z,3564.00
2019-05-30T05:52:57.748Z,3732.00
2019-05-30T05:53:57.957Z,3872.00
2019-05-30T05:54:58.160Z,4000.00
2019-05-30T05:55:58.362Z,4108.00
2019-05-30T05:56:58.554Z,4204.00
2019-05-30T05:57:58.735Z,4284.00
2019-05-30T05:58:58.923Z,4332.00
2019-05-30T05:59:59.126Z,4344.00
2019-05-30T06:00:59.328Z,4340.00
2019-05-30T06:01:59.493Z,4408.00
2019-05-30T06:02:59.642Z,4564.00
2019-05-30T06:04:12.841Z,4776.00
2019-05-30T06:05:02.471Z,5012.00
2019-05-30T06:06:00.971Z,5228.00
2019-05-30T06:07:00.280Z,5412.00
2019-05-30T06:08:00.448Z,5536.00
2019-05-30T06:09:01.468Z,5636.00
2019-05-30T06:10:00.792Z,5764.00
2019-05-30T06:11:00.893Z,5964.00
2019-05-30T06:12:01.067Z,6180.00
2019-05-30T06:13:01.237Z,6348.00
2019-05-30T06:14:01.409Z,6492.00
2019-05-30T06:15:01.595Z,6672.00
2019-05-30T06:16:01.835Z,6796.00
2019-05-30T06:17:02.005Z,6836.00
2019-05-30T06:18:02.169Z,6748.00
2019-05-30T06:19:02.306Z,6544.00
2019-05-30T06:20:02.483Z,6272.00
2019-05-30T06:21:02.664Z,5980.00
2019-05-30T06:22:02.808Z,5744.00
2019-05-30T06:23:02.973Z,5492.00
2019-05-30T06:24:03.125Z,5280.00
2019-05-30T06:25:03.306Z,5092.00
2019-05-30T06:26:03.467Z,4888.00
2019-05-30T06:27:03.665Z,4656.00
2019-05-30T06:28:03.850Z,4408.00
2019-05-30T06:29:04.526Z,4216.00
2019-05-30T06:30:04.160Z,4068.00
2019-05-30T06:31:04.320Z,3992.00
2019-05-30T06:32:04.500Z,3992.00
2019-05-30T06:33:04.720Z,4068.00
2019-05-30T06:34:04.887Z,4192.00
2019-05-30T06:35:05.032Z,4360.00
2019-05-30T06:36:05.168Z,4572.00
2019-05-30T06:37:05.474Z,4784.00
2019-05-30T06:38:05.487Z,5016.00
2019-05-30T06:39:06.477Z,5220.00
2019-05-30T06:40:05.850Z,5392.00
2019-05-30T06:41:06.016Z,5584.00
2019-05-30T06:42:06.217Z,5776.00
2019-05-30T06:43:06.394Z,5928.00
2019-05-30T06:44:06.543Z,5988.00
2019-05-30T06:45:06.746Z,5940.00
2019-05-30T06:46:06.922Z,5904.00
2019-05-30T06:47:07.167Z,5884.00
2019-05-30T06:48:07.365Z,5884.00
2019-05-30T06:49:07.536Z,5924.00
2019-05-30T06:50:08.469Z,5972.00
2019-05-30T06:51:07.860Z,6028.00
2019-05-30T06:52:08.026Z,6156.00
2019-05-30T06:53:08.239Z,6208.00
2019-05-30T06:54:08.407Z,6228.00
2019-05-30T06:55:08.978Z,6208.00
2019-05-30T06:56:08.717Z,6208.00
2019-05-30T06:57:08.913Z,6212.00
2019-05-30T06:58:09.076Z,6228.00
2019-05-30T06:59:09.986Z,6260.00
2019-05-30T07:00:09.366Z,6292.00
2019-05-30T07:01:09.524Z,6332.00
2019-05-30T07:02:09.734Z,6380.00
2019-05-30T07:03:09.989Z,6388.00
2019-05-30T07:04:11.400Z,6296.00
2019-05-30T07:05:10.891Z,6236.00
2019-05-30T07:06:10.787Z,6132.00
2019-05-30T07:07:10.660Z,6092.00
2019-05-30T07:08:10.676Z,5980.00
2019-05-30T07:09:10.825Z,5800.00
2019-05-30T07:10:10.992Z,5632.00
2019-05-30T07:11:11.176Z,5492.00
2019-05-30T07:12:12.106Z,5396.00
2019-05-30T07:13:12.556Z,5280.00
2019-05-30T07:14:11.671Z,5276.00
2019-05-30T07:15:11.853Z,5284.00
2019-05-30T07:16:12.021Z,5344.00
2019-05-30T07:17:12.193Z,5408.00
2019-05-30T07:18:12.382Z,5420.00
2019-05-30T07:19:12.539Z,5480.00
2019-05-30T07:20:12.706Z,5580.00
2019-05-30T07:21:12.890Z,5728.00
2019-05-30T07:22:13.060Z,5892.00
2019-05-30T07:23:13.255Z,6068.00
2019-05-30T07:24:13.424Z,6224.00
2019-05-30T07:25:13.594Z,6304.00
2019-05-30T07:26:13.740Z,6392.00
2019-05-30T07:27:13.930Z,6492.00
2019-05-30T07:28:14.095Z,6668.00
2019-05-30T07:29:14.272Z,6808.00
2019-05-30T07:30:14.457Z,6764.00
2019-05-30T07:31:14.630Z,6508.00
2019-05-30T07:32:14.785Z,6224.00
2019-05-30T07:33:14.992Z,5972.00
2019-05-30T07:34:15.158Z,5860.00
2019-05-30T07:35:15.320Z,5776.00
2019-05-30T07:36:15.524Z,5720.00
2019-05-30T07:37:15.678Z,5636.00
2019-05-30T07:38:15.878Z,5588.00
2019-05-30T07:39:16.057Z,5648.00
2019-05-30T07:40:19.412Z,5688.00
2019-05-30T07:41:17.366Z,5808.00
2019-05-30T07:42:16.520Z,6004.00
2019-05-30T07:43:16.731Z,6196.00
2019-05-30T07:44:16.928Z,6428.00
2019-05-30T07:45:17.137Z,6672.00
2019-05-30T07:46:17.325Z,6756.00
2019-05-30T07:47:17.514Z,6892.00
2019-05-30T07:48:17.687Z,6928.00
2019-05-30T07:49:17.880Z,6908.00
2019-05-30T07:50:18.092Z,6912.00
2019-05-30T07:51:18.247Z,6768.00
2019-05-30T07:52:18.432Z,6596.00
2019-05-30T07:53:18.647Z,6568.00
2019-05-30T07:54:18.837Z,6416.00
2019-05-30T07:55:19.023Z,6168.00
2019-05-30T07:56:19.204Z,6000.00
2019-05-30T07:57:19.395Z,5980.00
2019-05-30T07:58:19.579Z,6036.00
2019-05-30T07:59:19.807Z,6204.00
2019-05-30T08:00:20.490Z,6604.00
2019-05-30T08:01:20.167Z,6928.00
2019-05-30T08:02:20.333Z,7208.00
2019-05-30T08:03:20.517Z,7340.00
2019-05-30T08:04:20.702Z,7368.00
2019-05-30T08:05:24.601Z,7376.00
2019-05-30T08:06:22.009Z,7284.00
2019-05-30T08:07:21.151Z,7172.00
2019-05-30T08:08:21.309Z,7156.00
2019-05-30T08:09:21.503Z,6948.00
2019-05-30T08:10:21.676Z,6764.00
2019-05-30T08:11:21.840Z,6700.00
2019-05-30T08:12:22.001Z,6528.00
2019-05-30T08:13:22.162Z,6512.00
2019-05-30T08:14:22.353Z,6524.00
2019-05-30T08:15:22.531Z,6684.00
2019-05-30T08:16:22.753Z,7056.00
2019-05-30T08:17:22.915Z,7508.00
2019-05-30T08:18:24.131Z,7664.00
2019-05-30T08:19:23.252Z,7112.00
2019-05-30T08:20:23.432Z,6372.00
2019-05-30T08:21:23.590Z,5992.00
2019-05-30T08:22:23.778Z,5488.00
2019-05-30T08:23:23.979Z,5056.00
2019-05-30T08:24:24.133Z,4708.00
2019-05-30T08:25:24.330Z,4608.00
2019-05-30T08:26:24.514Z,4680.00
2019-05-30T08:27:24.669Z,4984.00
2019-05-30T08:28:24.823Z,5300.00
2019-05-30T08:29:24.982Z,5492.00
2019-05-30T08:30:25.159Z,5828.00
2019-05-30T08:31:25.306Z,5884.00
2019-05-30T08:32:25.437Z,5888.00
2019-05-30T08:33:25.609Z,5584.00
2019-05-30T08:34:25.740Z,5312.00
2019-05-30T08:35:39.030Z,5164.00
2019-05-30T08:36:28.770Z,5120.00
2019-05-30T08:37:26.240Z,5200.00
2019-05-30T08:38:26.407Z,5224.00
2019-05-30T08:39:26.553Z,5520.00
2019-05-30T08:40:27.490Z,5768.00
2019-05-30T08:41:26.851Z,6276.00
2019-05-30T08:42:27.973Z,6628.00
2019-05-30T08:43:29.278Z,6924.00
2019-05-30T08:44:27.273Z,7216.00
2019-05-30T08:45:27.435Z,7372.00
2019-05-30T08:46:27.582Z,7448.00
2019-05-30T08:47:27.756Z,7676.00
2019-05-30T08:48:27.994Z,7752.00
2019-05-30T08:49:28.158Z,8140.00
2019-05-30T08:50:28.310Z,9732.00
2019-05-30T08:51:28.452Z,13452.00
2019-05-30T08:52:28.625Z,18240.00
2019-05-30T08:53:30.104Z,18496.00
2019-05-30T08:54:30.181Z,27616.00
2019-05-30T08:55:30.163Z,48128.00
2019-05-30T08:56:30.205Z,37568.00
2019-05-30T08:57:30.489Z,31392.00
2019-05-30T08:58:30.426Z,21920.00
2019-05-30T08:59:30.318Z,21024.00
2019-05-30T09:00:31.081Z,20192.00
2019-05-30T09:01:30.255Z,16640.00
2019-05-30T09:02:30.417Z,26592.00
2019-05-30T09:03:30.589Z,36288.00
2019-05-30T09:04:30.786Z,25056.00
2019-05-30T09:05:30.970Z,20096.00
2019-05-30T09:06:31.138Z,17952.00
2019-05-30T09:07:31.820Z,17792.00
2019-05-30T09:08:32.998Z,19776.00
2019-05-30T09:09:31.644Z,17632.00
2019-05-30T09:10:32.508Z,16384.00
2019-05-30T09:11:32.014Z,15464.00
2019-05-30T09:12:32.197Z,15288.00
2019-05-30T09:13:32.391Z,16832.00
2019-05-30T09:14:32.620Z,22112.00
2019-05-30T09:15:32.799Z,25216.00
2019-05-30T09:16:33.013Z,23232.00
2019-05-30T09:17:34.003Z,21280.00
2019-05-30T09:18:33.398Z,21536.00
2019-05-30T09:19:33.599Z,21312.00
2019-05-30T09:20:33.751Z,27936.00
2019-05-30T09:21:33.926Z,32096.00
2019-05-30T09:22:34.112Z,30016.00
2019-05-30T09:23:35.029Z,23616.00
2019-05-30T09:24:34.533Z,29824.00
2019-05-30T09:25:34.602Z,21504.00
2019-05-30T09:26:34.754Z,25696.00
2019-05-30T09:27:34.887Z,20960.00
2019-05-30T09:28:35.044Z,21312.00
2019-05-30T09:29:35.264Z,23872.00
2019-05-30T09:30:35.415Z,18912.00
2019-05-30T09:31:35.551Z,17824.00
2019-05-30T09:32:35.692Z,18080.00
2019-05-30T09:33:35.877Z,20960.00
2019-05-30T09:34:36.518Z,24288.00
2019-05-30T09:35:36.180Z,31488.00
2019-05-30T09:36:36.371Z,32224.00
2019-05-30T09:37:36.528Z,29568.00
2019-05-30T09:38:36.738Z,24480.00
2019-05-30T09:39:36.934Z,22432.00
2019-05-30T09:40:37.137Z,21344.00
2019-05-30T09:41:37.330Z,16672.00
2019-05-30T09:42:37.510Z,15896.00
2019-05-30T09:43:37.692Z,17728.00
2019-05-30T09:44:40.525Z,18976.00
2019-05-30T09:45:38.093Z,17312.00
2019-05-30T09:46:38.255Z,15732.00
2019-05-30T09:47:41.287Z,16032.00
2019-05-30T09:48:40.149Z,16704.00
2019-05-30T09:49:38.761Z,15968.00
2019-05-30T09:50:38.947Z,20672.00
2019-05-30T09:51:39.083Z,23264.00
2019-05-30T09:52:39.218Z,22336.00
2019-05-30T09:53:39.355Z,20416.00
2019-05-30T09:54:41.173Z,20896.00
2019-05-30T09:55:39.698Z,26368.00
2019-05-30T09:56:39.827Z,27296.00
2019-05-30T09:57:41.296Z,24128.00
2019-05-30T09:58:42.220Z,24256.00
2019-05-30T09:59:41.789Z,25696.00
2019-05-30T10:00:42.907Z,29504.00
2019-05-30T10:01:42.631Z,26048.00
2019-05-30T10:02:42.962Z,23936.00
2019-05-30T10:03:43.065Z,24224.00
2019-05-30T10:04:42.047Z,29920.00
2019-05-30T10:05:43.308Z,25056.00
2019-05-30T10:06:43.573Z,25344.00
2019-05-30T10:07:43.518Z,22432.00
2019-05-30T10:08:42.476Z,22688.00
2019-05-30T10:09:42.747Z,20768.00
2019-05-30T10:10:43.758Z,18272.00
2019-05-30T10:11:42.807Z,16352.00
2019-05-30T10:12:43.897Z,16032.00
2019-05-30T10:13:45.746Z,19008.00
2019-05-30T10:14:45.629Z,21600.00
2019-05-30T10:15:44.059Z,22112.00
2019-05-30T10:16:47.324Z,23264.00
2019-05-30T10:17:48.307Z,22272.00
2019-05-30T10:18:47.236Z,23200.00
2019-05-30T10:19:45.846Z,22144.00
2019-05-30T10:20:45.799Z,20096.00
2019-05-30T10:21:47.119Z,17856.00
2019-05-30T10:22:48.285Z,16320.00
2019-05-30T10:23:47.183Z,15580.00
2019-05-30T10:24:46.299Z,15348.00
2019-05-30T10:25:46.644Z,15904.00
2019-05-30T10:26:46.092Z,17984.00
2019-05-30T10:27:47.899Z,18432.00
2019-05-30T10:28:46.413Z,20672.00
2019-05-30T10:29:47.523Z,25344.00
2019-05-30T10:30:51.777Z,23936.00
2019-05-30T10:31:48.327Z,21536.00
2019-05-30T10:32:48.168Z,20096.00
2019-05-30T10:33:49.210Z,18144.00
2019-05-30T10:34:48.047Z,16640.00
2019-05-30T10:35:49.146Z,15968.00
2019-05-30T10:36:48.757Z,16896.00
2019-05-30T10:37:49.093Z,18208.00
2019-05-30T10:38:50.221Z,19008.00
2019-05-30T10:39:49.187Z,18496.00
2019-05-30T10:40:50.338Z,17824.00
2019-05-30T10:41:49.022Z,16768.00
2019-05-30T10:42:49.610Z,16416.00
2019-05-30T10:43:49.064Z,15792.00
2019-05-30T10:44:49.918Z,20416.00
2019-05-30T10:45:49.640Z,18208.00
2019-05-30T10:46:51.009Z,17696.00
2019-05-30T10:47:51.236Z,21152.00
2019-05-30T10:48:50.941Z,21152.00
2019-05-30T10:49:49.920Z,20480.00
2019-05-30T10:50:50.726Z,18144.00
2019-05-30T10:51:49.867Z,19200.00
2019-05-30T10:52:50.036Z,18528.00
2019-05-30T10:53:50.857Z,16864.00
2019-05-30T10:54:51.528Z,15292.00
2019-05-30T10:55:50.560Z,18880.00
2019-05-30T10:56:51.486Z,18912.00
2019-05-30T10:57:51.741Z,17984.00
2019-05-30T10:58:51.063Z,18016.00
2019-05-30T10:59:52.560Z,17152.00
2019-05-30T11:00:53.339Z,15376.00
2019-05-30T11:01:53.054Z,13772.00
2019-05-30T11:02:52.934Z,13024.00
2019-05-30T11:03:52.626Z,13576.00
2019-05-30T11:04:53.131Z,14476.00
2019-05-30T11:05:52.867Z,14612.00
2019-05-30T11:07:09.876Z,14156.00
2019-05-30T11:08:02.042Z,13724.00
2019-05-30T11:08:54.765Z,14640.00
2019-05-30T11:09:53.175Z,14812.00
2019-05-30T11:10:53.302Z,13828.00
2019-05-30T11:11:54.903Z,12792.00
2019-05-30T11:13:03.091Z,12744.00
2019-05-30T11:13:55.920Z,12840.00
2019-05-30T11:14:55.280Z,11788.00
2019-05-30T11:15:55.459Z,11124.00
2019-05-30T11:16:55.496Z,11276.00
2019-05-30T11:17:54.842Z,11560.00
2019-05-30T11:18:56.095Z,11864.00
2019-05-30T11:19:56.099Z,11648.00
2019-05-30T11:20:56.242Z,11548.00
2019-05-30T11:21:56.286Z,10932.00
2019-05-30T11:22:56.518Z,10620.00
2019-05-30T11:23:56.815Z,10512.00
2019-05-30T11:24:56.856Z,9828.00
2019-05-30T11:25:56.863Z,8732.00
2019-05-30T11:26:57.125Z,7660.00
2019-05-30T11:27:56.856Z,7148.00
2019-05-30T11:28:56.795Z,7076.00
2019-05-30T11:29:58.915Z,7048.00
2019-05-30T11:30:56.937Z,7188.00
2019-05-30T11:31:59.046Z,7556.00
2019-05-30T11:32:57.332Z,7620.00
2019-05-30T11:33:59.181Z,7076.00
2019-05-30T11:34:57.609Z,6300.00
2019-05-30T11:35:59.249Z,5844.00
2019-05-30T11:36:59.132Z,5504.00
2019-05-30T11:37:59.254Z,5408.00
2019-05-30T11:38:59.431Z,5684.00
2019-05-30T11:39:59.467Z,6148.00
2019-05-30T11:40:59.623Z,6720.00
2019-05-30T11:41:59.522Z,6940.00
2019-05-30T11:42:59.944Z,7228.00
2019-05-30T11:44:03.960Z,7820.00
2019-05-30T11:44:59.959Z,8516.00
2019-05-30T11:46:00.529Z,8376.00
2019-05-30T11:46:59.846Z,7648.00
2019-05-30T11:48:00.142Z,7480.00
2019-05-30T11:49:01.548Z,6896.00
2019-05-30T11:50:01.054Z,6456.00
2019-05-30T11:51:00.370Z,6308.00
2019-05-30T11:52:00.433Z,6160.00
2019-05-30T11:53:00.589Z,6220.00
2019-05-30T11:54:01.158Z,6228.00
2019-05-30T11:55:01.957Z,6132.00
2019-05-30T11:56:01.123Z,6044.00
2019-05-30T11:57:01.283Z,5812.00
2019-05-30T11:58:01.495Z,6040.00
2019-05-30T11:59:01.674Z,6176.00
2019-05-30T12:00:01.845Z,6348.00
2019-05-30T12:01:02.035Z,6388.00
2019-05-30T12:02:03.075Z,6796.00
2019-05-30T12:03:02.347Z,6848.00
2019-05-30T12:04:02.500Z,6784.00
2019-05-30T12:05:02.660Z,6768.00
2019-05-30T12:06:03.057Z,6840.00
2019-05-30T12:07:02.952Z,6836.00
2019-05-30T12:08:03.132Z,7000.00
2019-05-30T12:09:03.268Z,7108.00
2019-05-30T12:10:03.402Z,7340.00
2019-05-30T12:11:03.564Z,7476.00
2019-05-30T12:12:03.696Z,7168.00
2019-05-30T12:13:03.862Z,7160.00
2019-05-30T12:14:04.002Z,7364.00
2019-05-30T12:15:04.150Z,7716.00
2019-05-30T12:16:04.304Z,8772.00
2019-05-30T12:17:04.470Z,10328.00
2019-05-30T12:18:04.619Z,11760.00
2019-05-30T12:19:04.739Z,12836.00
2019-05-30T12:20:04.884Z,12516.00
2019-05-30T12:21:05.020Z,12564.00